sensor_id;sensor_type;location;lat;lon;timestamp;P1;durP1;ratioP1;P2;durP2;ratioP2
81229;SDS011;70701;44.452;18.652;2024-03-07T00:01:35;23.73;;;13.07;;
81229;SDS011;70701;44.452;18.652;2024-03-07T00:04:02;27.27;;;16.77;;
81229;SDS011;70701;44.452;18.652;2024-03-07T00:06:28;29.97;;;17.43;;
81229;SDS011;70701;44.452;18.652;2024-03-07T00:08:54;30.60;;;18.23;;
81229;SDS011;70701;44.452;18.652;2024-03-07T00:11:21;26.73;;;16.60;;
81229;SDS011;70701;44.452;18.652;2024-03-07T00:13:53;24.58;;;15.43;;
81229;SDS011;70701;44.452;18.652;2024-03-07T00:16:22;26.43;;;16.73;;
81229;SDS011;70701;44.452;18.652;2024-03-07T00:18:48;23.63;;;15.50;;
81229;SDS011;70701;44.452;18.652;2024-03-07T00:21:13;23.07;;;13.73;;
81229;SDS011;70701;44.452;18.652;2024-03-07T00:23:39;22.90;;;14.90;;
81229;SDS011;70701;44.452;18.652;2024-03-07T00:26:05;24.53;;;15.33;;
81229;SDS011;70701;44.452;18.652;2024-03-07T00:28:31;25.97;;;15.80;;
81229;SDS011;70701;44.452;18.652;2024-03-07T00:31:00;27.83;;;17.73;;
81229;SDS011;70701;44.452;18.652;2024-03-07T00:33:25;26.93;;;18.83;;
81229;SDS011;70701;44.452;18.652;2024-03-07T00:35:53;23.23;;;16.37;;
81229;SDS011;70701;44.452;18.652;2024-03-07T00:38:19;29.70;;;18.77;;
81229;SDS011;70701;44.452;18.652;2024-03-07T00:40:45;26.27;;;16.27;;
81229;SDS011;70701;44.452;18.652;2024-03-07T00:43:11;26.10;;;14.70;;
81229;SDS011;70701;44.452;18.652;2024-03-07T00:45:37;26.40;;;15.90;;
81229;SDS011;70701;44.452;18.652;2024-03-07T00:48:03;22.50;;;14.40;;
81229;SDS011;70701;44.452;18.652;2024-03-07T00:50:29;23.27;;;14.57;;
81229;SDS011;70701;44.452;18.652;2024-03-07T00:52:56;25.57;;;15.20;;
81229;SDS011;70701;44.452;18.652;2024-03-07T00:55:21;22.13;;;14.17;;
81229;SDS011;70701;44.452;18.652;2024-03-07T00:57:47;22.83;;;15.30;;
81229;SDS011;70701;44.452;18.652;2024-03-07T01:00:15;26.97;;;16.57;;
81229;SDS011;70701;44.452;18.652;2024-03-07T01:02:42;25.40;;;15.90;;
81229;SDS011;70701;44.452;18.652;2024-03-07T01:05:12;23.20;;;15.30;;
81229;SDS011;70701;44.452;18.652;2024-03-07T01:07:40;26.17;;;16.13;;
81229;SDS011;70701;44.452;18.652;2024-03-07T01:10:06;26.37;;;16.70;;
81229;SDS011;70701;44.452;18.652;2024-03-07T01:12:34;24.27;;;16.37;;
81229;SDS011;70701;44.452;18.652;2024-03-07T01:15:02;23.83;;;14.87;;
81229;SDS011;70701;44.452;18.652;2024-03-07T01:17:29;22.53;;;13.13;;
81229;SDS011;70701;44.452;18.652;2024-03-07T01:19:55;21.50;;;13.30;;
81229;SDS011;70701;44.452;18.652;2024-03-07T01:22:21;22.20;;;15.10;;
81229;SDS011;70701;44.452;18.652;2024-03-07T01:24:47;22.93;;;14.87;;
81229;SDS011;70701;44.452;18.652;2024-03-07T01:27:13;20.00;;;12.70;;
81229;SDS011;70701;44.452;18.652;2024-03-07T01:29:38;22.37;;;13.07;;
81229;SDS011;70701;44.452;18.652;2024-03-07T01:32:06;26.20;;;13.60;;
81229;SDS011;70701;44.452;18.652;2024-03-07T01:34:32;34.50;;;16.73;;
81229;SDS011;70701;44.452;18.652;2024-03-07T01:36:58;30.20;;;14.23;;
81229;SDS011;70701;44.452;18.652;2024-03-07T01:39:23;29.07;;;16.00;;
81229;SDS011;70701;44.452;18.652;2024-03-07T01:41:49;35.53;;;16.43;;
81229;SDS011;70701;44.452;18.652;2024-03-07T01:44:14;38.70;;;16.37;;
81229;SDS011;70701;44.452;18.652;2024-03-07T01:46:40;34.63;;;16.80;;
81229;SDS011;70701;44.452;18.652;2024-03-07T01:49:09;34.27;;;16.17;;
81229;SDS011;70701;44.452;18.652;2024-03-07T01:51:38;39.07;;;19.23;;
81229;SDS011;70701;44.452;18.652;2024-03-07T01:54:05;42.60;;;20.77;;
81229;SDS011;70701;44.452;18.652;2024-03-07T01:56:34;44.27;;;19.70;;
81229;SDS011;70701;44.452;18.652;2024-03-07T01:59:01;50.23;;;23.30;;
81229;SDS011;70701;44.452;18.652;2024-03-07T02:01:29;53.27;;;24.67;;
81229;SDS011;70701;44.452;18.652;2024-03-07T02:03:56;47.53;;;22.27;;
81229;SDS011;70701;44.452;18.652;2024-03-07T02:06:22;39.97;;;19.00;;
81229;SDS011;70701;44.452;18.652;2024-03-07T02:08:48;36.93;;;17.90;;
81229;SDS011;70701;44.452;18.652;2024-03-07T02:11:14;30.47;;;14.60;;
81229;SDS011;70701;44.452;18.652;2024-03-07T02:13:41;39.43;;;15.53;;
81229;SDS011;70701;44.452;18.652;2024-03-07T02:16:06;34.57;;;14.97;;
81229;SDS011;70701;44.452;18.652;2024-03-07T02:18:33;31.83;;;14.23;;
81229;SDS011;70701;44.452;18.652;2024-03-07T02:21:00;29.13;;;14.30;;
81229;SDS011;70701;44.452;18.652;2024-03-07T02:23:27;37.87;;;15.07;;
81229;SDS011;70701;44.452;18.652;2024-03-07T02:25:53;60.50;;;22.67;;
81229;SDS011;70701;44.452;18.652;2024-03-07T02:28:20;50.57;;;22.03;;
81229;SDS011;70701;44.452;18.652;2024-03-07T02:30:45;56.70;;;21.80;;
81229;SDS011;70701;44.452;18.652;2024-03-07T02:33:11;45.40;;;19.17;;
81229;SDS011;70701;44.452;18.652;2024-03-07T02:35:37;56.20;;;20.30;;
81229;SDS011;70701;44.452;18.652;2024-03-07T02:38:03;50.13;;;18.27;;
81229;SDS011;70701;44.452;18.652;2024-03-07T02:40:30;46.63;;;17.73;;
81229;SDS011;70701;44.452;18.652;2024-03-07T02:42:56;33.93;;;13.77;;
81229;SDS011;70701;44.452;18.652;2024-03-07T02:45:22;39.00;;;15.53;;
81229;SDS011;70701;44.452;18.652;2024-03-07T02:47:48;35.87;;;14.77;;
81229;SDS011;70701;44.452;18.652;2024-03-07T02:50:14;28.70;;;12.57;;
81229;SDS011;70701;44.452;18.652;2024-03-07T02:52:40;36.20;;;16.13;;
81229;SDS011;70701;44.452;18.652;2024-03-07T02:55:06;49.00;;;20.60;;
81229;SDS011;70701;44.452;18.652;2024-03-07T02:57:35;43.10;;;18.23;;
81229;SDS011;70701;44.452;18.652;2024-03-07T03:00:02;37.73;;;14.43;;
81229;SDS011;70701;44.452;18.652;2024-03-07T03:02:28;32.70;;;14.33;;
81229;SDS011;70701;44.452;18.652;2024-03-07T03:04:54;30.70;;;13.13;;
81229;SDS011;70701;44.452;18.652;2024-03-07T03:07:20;27.17;;;13.70;;
81229;SDS011;70701;44.452;18.652;2024-03-07T03:09:46;24.53;;;10.33;;
81229;SDS011;70701;44.452;18.652;2024-03-07T03:12:12;40.93;;;19.87;;
81229;SDS011;70701;44.452;18.652;2024-03-07T03:14:38;26.20;;;14.77;;
81229;SDS011;70701;44.452;18.652;2024-03-07T03:17:04;25.20;;;13.93;;
81229;SDS011;70701;44.452;18.652;2024-03-07T03:19:30;16.40;;;10.87;;
81229;SDS011;70701;44.452;18.652;2024-03-07T03:21:56;12.77;;;8.03;;
81229;SDS011;70701;44.452;18.652;2024-03-07T03:24:22;9.70;;;6.83;;
81229;SDS011;70701;44.452;18.652;2024-03-07T03:26:48;9.83;;;6.53;;
81229;SDS011;70701;44.452;18.652;2024-03-07T03:29:14;10.57;;;6.23;;
81229;SDS011;70701;44.452;18.652;2024-03-07T03:31:41;12.77;;;6.70;;
81229;SDS011;70701;44.452;18.652;2024-03-07T03:34:06;14.47;;;7.83;;
81229;SDS011;70701;44.452;18.652;2024-03-07T03:36:34;8.93;;;5.90;;
81229;SDS011;70701;44.452;18.652;2024-03-07T03:39:00;11.17;;;6.90;;
81229;SDS011;70701;44.452;18.652;2024-03-07T03:41:26;11.30;;;6.87;;
81229;SDS011;70701;44.452;18.652;2024-03-07T03:43:52;10.30;;;6.63;;
81229;SDS011;70701;44.452;18.652;2024-03-07T03:46:18;10.83;;;6.17;;
81229;SDS011;70701;44.452;18.652;2024-03-07T03:48:43;17.60;;;9.47;;
81229;SDS011;70701;44.452;18.652;2024-03-07T03:51:09;16.07;;;9.20;;
81229;SDS011;70701;44.452;18.652;2024-03-07T03:53:38;12.10;;;7.27;;
81229;SDS011;70701;44.452;18.652;2024-03-07T03:56:05;10.27;;;6.70;;
81229;SDS011;70701;44.452;18.652;2024-03-07T03:58:31;10.70;;;7.30;;
81229;SDS011;70701;44.452;18.652;2024-03-07T04:00:59;13.37;;;7.77;;
81229;SDS011;70701;44.452;18.652;2024-03-07T04:03:25;18.10;;;9.77;;
81229;SDS011;70701;44.452;18.652;2024-03-07T04:05:52;29.60;;;16.00;;
81229;SDS011;70701;44.452;18.652;2024-03-07T04:08:17;32.80;;;16.93;;
81229;SDS011;70701;44.452;18.652;2024-03-07T04:10:45;44.73;;;23.47;;
81229;SDS011;70701;44.452;18.652;2024-03-07T04:13:11;34.13;;;18.77;;
81229;SDS011;70701;44.452;18.652;2024-03-07T04:15:36;31.87;;;18.03;;
81229;SDS011;70701;44.452;18.652;2024-03-07T04:18:02;31.00;;;17.57;;
81229;SDS011;70701;44.452;18.652;2024-03-07T04:20:28;31.10;;;18.67;;
81229;SDS011;70701;44.452;18.652;2024-03-07T04:22:53;33.30;;;19.57;;
81229;SDS011;70701;44.452;18.652;2024-03-07T04:25:20;34.03;;;17.70;;
81229;SDS011;70701;44.452;18.652;2024-03-07T04:27:46;32.37;;;18.37;;
81229;SDS011;70701;44.452;18.652;2024-03-07T04:30:14;26.10;;;14.93;;
81229;SDS011;70701;44.452;18.652;2024-03-07T04:32:41;20.77;;;13.23;;
81229;SDS011;70701;44.452;18.652;2024-03-07T04:35:07;24.53;;;13.53;;
81229;SDS011;70701;44.452;18.652;2024-03-07T04:37:35;22.13;;;14.13;;
81229;SDS011;70701;44.452;18.652;2024-03-07T04:40:08;32.67;;;18.87;;
81229;SDS011;70701;44.452;18.652;2024-03-07T04:42:42;31.30;;;19.03;;
81229;SDS011;70701;44.452;18.652;2024-03-07T04:45:09;33.37;;;19.03;;
81229;SDS011;70701;44.452;18.652;2024-03-07T04:47:41;26.87;;;17.80;;
81229;SDS011;70701;44.452;18.652;2024-03-07T04:50:08;28.40;;;18.30;;
81229;SDS011;70701;44.452;18.652;2024-03-07T04:52:37;19.27;;;13.57;;
81229;SDS011;70701;44.452;18.652;2024-03-07T04:55:07;15.53;;;11.97;;
81229;SDS011;70701;44.452;18.652;2024-03-07T04:57:37;15.00;;;10.47;;
81229;SDS011;70701;44.452;18.652;2024-03-07T05:00:06;17.97;;;11.47;;
81229;SDS011;70701;44.452;18.652;2024-03-07T05:02:44;16.90;;;10.97;;
81229;SDS011;70701;44.452;18.652;2024-03-07T05:05:13;28.20;;;19.27;;
81229;SDS011;70701;44.452;18.652;2024-03-07T05:07:39;36.57;;;20.70;;
81229;SDS011;70701;44.452;18.652;2024-03-07T05:10:05;43.83;;;23.07;;
81229;SDS011;70701;44.452;18.652;2024-03-07T05:12:32;22.00;;;13.37;;
81229;SDS011;70701;44.452;18.652;2024-03-07T05:14:59;23.73;;;14.97;;
81229;SDS011;70701;44.452;18.652;2024-03-07T05:17:25;21.40;;;13.20;;
81229;SDS011;70701;44.452;18.652;2024-03-07T05:19:50;18.77;;;15.07;;
81229;SDS011;70701;44.452;18.652;2024-03-07T05:22:16;33.00;;;14.60;;
81229;SDS011;70701;44.452;18.652;2024-03-07T05:24:43;41.57;;;18.70;;
81229;SDS011;70701;44.452;18.652;2024-03-07T05:27:09;70.60;;;28.53;;
81229;SDS011;70701;44.452;18.652;2024-03-07T05:29:38;58.17;;;23.50;;
81229;SDS011;70701;44.452;18.652;2024-03-07T05:32:20;37.77;;;19.10;;
81229;SDS011;70701;44.452;18.652;2024-03-07T05:34:49;43.77;;;25.63;;
81229;SDS011;70701;44.452;18.652;2024-03-07T05:37:14;24.10;;;15.57;;
81229;SDS011;70701;44.452;18.652;2024-03-07T05:39:40;29.37;;;19.23;;
81229;SDS011;70701;44.452;18.652;2024-03-07T05:42:06;21.60;;;15.80;;
81229;SDS011;70701;44.452;18.652;2024-03-07T05:44:32;32.57;;;20.30;;
81229;SDS011;70701;44.452;18.652;2024-03-07T05:46:58;32.87;;;20.53;;
81229;SDS011;70701;44.452;18.652;2024-03-07T05:49:24;24.30;;;15.37;;
81229;SDS011;70701;44.452;18.652;2024-03-07T05:51:49;21.53;;;14.50;;
81229;SDS011;70701;44.452;18.652;2024-03-07T05:54:15;24.03;;;17.00;;
81229;SDS011;70701;44.452;18.652;2024-03-07T05:56:41;39.37;;;22.63;;
81229;SDS011;70701;44.452;18.652;2024-03-07T05:59:07;26.90;;;16.67;;
81229;SDS011;70701;44.452;18.652;2024-03-07T06:01:35;26.40;;;18.63;;
81229;SDS011;70701;44.452;18.652;2024-03-07T06:04:04;25.27;;;14.90;;
81229;SDS011;70701;44.452;18.652;2024-03-07T06:06:31;26.47;;;15.83;;
81229;SDS011;70701;44.452;18.652;2024-03-07T06:08:58;17.23;;;11.43;;
81229;SDS011;70701;44.452;18.652;2024-03-07T06:11:25;16.03;;;9.17;;
81229;SDS011;70701;44.452;18.652;2024-03-07T06:13:50;11.93;;;6.83;;
81229;SDS011;70701;44.452;18.652;2024-03-07T06:16:16;9.87;;;7.20;;
81229;SDS011;70701;44.452;18.652;2024-03-07T06:18:44;12.70;;;7.40;;
81229;SDS011;70701;44.452;18.652;2024-03-07T06:21:12;20.03;;;12.13;;
81229;SDS011;70701;44.452;18.652;2024-03-07T06:23:38;15.60;;;9.03;;
81229;SDS011;70701;44.452;18.652;2024-03-07T06:26:05;15.97;;;9.70;;
81229;SDS011;70701;44.452;18.652;2024-03-07T06:28:38;13.57;;;7.30;;
81229;SDS011;70701;44.452;18.652;2024-03-07T06:31:04;14.17;;;8.47;;
81229;SDS011;70701;44.452;18.652;2024-03-07T06:33:33;13.73;;;8.57;;
81229;SDS011;70701;44.452;18.652;2024-03-07T06:35:59;12.47;;;7.60;;
81229;SDS011;70701;44.452;18.652;2024-03-07T06:38:26;16.07;;;9.23;;
81229;SDS011;70701;44.452;18.652;2024-03-07T06:40:52;15.40;;;8.90;;
81229;SDS011;70701;44.452;18.652;2024-03-07T06:43:18;17.37;;;11.30;;
81229;SDS011;70701;44.452;18.652;2024-03-07T06:45:43;12.40;;;7.50;;
81229;SDS011;70701;44.452;18.652;2024-03-07T06:48:11;10.57;;;5.70;;
81229;SDS011;70701;44.452;18.652;2024-03-07T06:50:39;11.80;;;6.37;;
81229;SDS011;70701;44.452;18.652;2024-03-07T06:53:05;18.43;;;9.83;;
81229;SDS011;70701;44.452;18.652;2024-03-07T06:55:34;17.87;;;10.33;;
81229;SDS011;70701;44.452;18.652;2024-03-07T06:58:00;29.53;;;12.07;;
81229;SDS011;70701;44.452;18.652;2024-03-07T07:00:30;19.30;;;9.90;;
81229;SDS011;70701;44.452;18.652;2024-03-07T07:02:57;14.70;;;6.87;;
81229;SDS011;70701;44.452;18.652;2024-03-07T07:05:23;54.73;;;25.33;;
81229;SDS011;70701;44.452;18.652;2024-03-07T07:07:48;13.53;;;7.17;;
81229;SDS011;70701;44.452;18.652;2024-03-07T07:10:14;14.30;;;7.63;;
81229;SDS011;70701;44.452;18.652;2024-03-07T07:12:44;23.23;;;11.10;;
81229;SDS011;70701;44.452;18.652;2024-03-07T07:15:11;19.13;;;9.87;;
81229;SDS011;70701;44.452;18.652;2024-03-07T07:17:38;19.60;;;11.10;;
81229;SDS011;70701;44.452;18.652;2024-03-07T07:20:04;39.60;;;15.30;;
81229;SDS011;70701;44.452;18.652;2024-03-07T07:22:40;30.30;;;13.47;;
81229;SDS011;70701;44.452;18.652;2024-03-07T07:25:31;17.87;;;8.73;;
81229;SDS011;70701;44.452;18.652;2024-03-07T07:27:57;21.73;;;11.57;;
81229;SDS011;70701;44.452;18.652;2024-03-07T07:30:23;29.50;;;13.93;;
81229;SDS011;70701;44.452;18.652;2024-03-07T07:32:50;41.83;;;16.33;;
81229;SDS011;70701;44.452;18.652;2024-03-07T07:35:16;33.60;;;15.43;;
81229;SDS011;70701;44.452;18.652;2024-03-07T07:37:43;28.43;;;14.27;;
81229;SDS011;70701;44.452;18.652;2024-03-07T07:40:12;26.40;;;13.50;;
81229;SDS011;70701;44.452;18.652;2024-03-07T07:42:40;19.57;;;12.87;;
81229;SDS011;70701;44.452;18.652;2024-03-07T07:45:10;21.30;;;9.80;;
81229;SDS011;70701;44.452;18.652;2024-03-07T07:47:38;19.67;;;10.47;;
81229;SDS011;70701;44.452;18.652;2024-03-07T07:50:08;13.20;;;7.27;;
81229;SDS011;70701;44.452;18.652;2024-03-07T07:52:44;20.17;;;10.60;;
81229;SDS011;70701;44.452;18.652;2024-03-07T07:55:12;17.50;;;10.27;;
81229;SDS011;70701;44.452;18.652;2024-03-07T07:57:44;14.70;;;8.50;;
81229;SDS011;70701;44.452;18.652;2024-03-07T08:00:11;13.83;;;8.40;;
81229;SDS011;70701;44.452;18.652;2024-03-07T08:02:53;15.10;;;7.70;;
81229;SDS011;70701;44.452;18.652;2024-03-07T08:05:27;12.63;;;6.40;;
81229;SDS011;70701;44.452;18.652;2024-03-07T08:07:54;15.47;;;9.23;;
81229;SDS011;70701;44.452;18.652;2024-03-07T08:10:26;12.60;;;6.57;;
81229;SDS011;70701;44.452;18.652;2024-03-07T08:12:59;12.13;;;7.22;;
81229;SDS011;70701;44.452;18.652;2024-03-07T08:15:26;11.37;;;7.20;;
81229;SDS011;70701;44.452;18.652;2024-03-07T08:17:56;11.63;;;6.97;;
81229;SDS011;70701;44.452;18.652;2024-03-07T08:20:24;13.67;;;6.17;;
81229;SDS011;70701;44.452;18.652;2024-03-07T08:22:51;10.30;;;5.17;;
81229;SDS011;70701;44.452;18.652;2024-03-07T08:25:21;12.10;;;6.07;;
81229;SDS011;70701;44.452;18.652;2024-03-07T08:27:49;12.70;;;6.77;;
81229;SDS011;70701;44.452;18.652;2024-03-07T08:30:16;10.00;;;5.10;;
81229;SDS011;70701;44.452;18.652;2024-03-07T08:32:46;18.80;;;8.67;;
81229;SDS011;70701;44.452;18.652;2024-03-07T08:35:16;11.60;;;7.17;;
81229;SDS011;70701;44.452;18.652;2024-03-07T08:37:43;14.53;;;7.03;;
81229;SDS011;70701;44.452;18.652;2024-03-07T08:40:15;17.60;;;9.13;;
81229;SDS011;70701;44.452;18.652;2024-03-07T08:42:46;19.63;;;10.80;;
81229;SDS011;70701;44.452;18.652;2024-03-07T08:45:13;10.43;;;6.53;;
81229;SDS011;70701;44.452;18.652;2024-03-07T08:47:42;8.10;;;4.23;;
81229;SDS011;70701;44.452;18.652;2024-03-07T08:50:08;8.83;;;4.83;;
81229;SDS011;70701;44.452;18.652;2024-03-07T08:52:35;9.30;;;4.67;;
81229;SDS011;70701;44.452;18.652;2024-03-07T08:55:09;11.17;;;6.90;;
81229;SDS011;70701;44.452;18.652;2024-03-07T08:57:37;12.63;;;6.83;;
81229;SDS011;70701;44.452;18.652;2024-03-07T09:00:04;9.20;;;5.13;;
81229;SDS011;70701;44.452;18.652;2024-03-07T09:02:37;7.77;;;4.87;;
81229;SDS011;70701;44.452;18.652;2024-03-07T09:05:04;14.93;;;7.37;;
81229;SDS011;70701;44.452;18.652;2024-03-07T09:07:31;19.00;;;8.53;;
81229;SDS011;70701;44.452;18.652;2024-03-07T09:09:57;14.90;;;7.73;;
81229;SDS011;70701;44.452;18.652;2024-03-07T09:12:23;12.67;;;7.53;;
81229;SDS011;70701;44.452;18.652;2024-03-07T09:14:50;9.60;;;6.33;;
81229;SDS011;70701;44.452;18.652;2024-03-07T09:17:17;12.00;;;7.03;;
81229;SDS011;70701;44.452;18.652;2024-03-07T09:19:46;7.53;;;4.57;;
81229;SDS011;70701;44.452;18.652;2024-03-07T09:22:12;5.90;;;3.73;;
81229;SDS011;70701;44.452;18.652;2024-03-07T09:24:38;7.33;;;3.97;;
81229;SDS011;70701;44.452;18.652;2024-03-07T09:27:03;8.87;;;4.83;;
81229;SDS011;70701;44.452;18.652;2024-03-07T09:29:30;9.40;;;5.20;;
81229;SDS011;70701;44.452;18.652;2024-03-07T09:31:55;6.93;;;4.30;;
81229;SDS011;70701;44.452;18.652;2024-03-07T09:34:22;6.07;;;3.37;;
81229;SDS011;70701;44.452;18.652;2024-03-07T09:36:49;7.77;;;4.70;;
81229;SDS011;70701;44.452;18.652;2024-03-07T09:39:15;7.17;;;4.00;;
81229;SDS011;70701;44.452;18.652;2024-03-07T09:41:41;7.40;;;4.33;;
81229;SDS011;70701;44.452;18.652;2024-03-07T09:44:12;7.70;;;4.50;;
81229;SDS011;70701;44.452;18.652;2024-03-07T09:46:42;6.77;;;4.23;;
81229;SDS011;70701;44.452;18.652;2024-03-07T09:49:11;8.27;;;4.20;;
81229;SDS011;70701;44.452;18.652;2024-03-07T09:51:38;9.23;;;4.67;;
81229;SDS011;70701;44.452;18.652;2024-03-07T09:54:04;10.77;;;5.47;;
81229;SDS011;70701;44.452;18.652;2024-03-07T09:56:31;8.00;;;5.33;;
81229;SDS011;70701;44.452;18.652;2024-03-07T09:59:01;9.13;;;5.77;;
81229;SDS011;70701;44.452;18.652;2024-03-07T10:01:30;8.47;;;5.27;;
81229;SDS011;70701;44.452;18.652;2024-03-07T10:04:01;8.33;;;5.47;;
81229;SDS011;70701;44.452;18.652;2024-03-07T10:06:40;7.67;;;4.90;;
81229;SDS011;70701;44.452;18.652;2024-03-07T10:09:09;8.90;;;5.43;;
81229;SDS011;70701;44.452;18.652;2024-03-07T10:11:38;8.23;;;5.50;;
81229;SDS011;70701;44.452;18.652;2024-03-07T10:14:08;10.67;;;6.17;;
81229;SDS011;70701;44.452;18.652;2024-03-07T10:16:34;16.70;;;10.60;;
81229;SDS011;70701;44.452;18.652;2024-03-07T10:19:03;12.40;;;7.77;;
81229;SDS011;70701;44.452;18.652;2024-03-07T10:21:29;9.33;;;5.77;;
81229;SDS011;70701;44.452;18.652;2024-03-07T10:24:04;10.97;;;6.60;;
81229;SDS011;70701;44.452;18.652;2024-03-07T10:26:37;11.37;;;6.93;;
81229;SDS011;70701;44.452;18.652;2024-03-07T10:29:06;12.03;;;7.90;;
81229;SDS011;70701;44.452;18.652;2024-03-07T10:31:33;10.77;;;7.57;;
81229;SDS011;70701;44.452;18.652;2024-03-07T10:34:00;18.07;;;11.07;;
81229;SDS011;70701;44.452;18.652;2024-03-07T10:36:28;13.83;;;9.57;;
81229;SDS011;70701;44.452;18.652;2024-03-07T10:38:57;16.70;;;10.83;;
81229;SDS011;70701;44.452;18.652;2024-03-07T10:44:01;11.93;;;7.87;;
81229;SDS011;70701;44.452;18.652;2024-03-07T10:46:33;13.03;;;9.13;;
81229;SDS011;70701;44.452;18.652;2024-03-07T10:49:00;14.50;;;8.90;;
81229;SDS011;70701;44.452;18.652;2024-03-07T10:51:35;16.10;;;8.93;;
81229;SDS011;70701;44.452;18.652;2024-03-07T10:54:29;11.87;;;7.20;;
81229;SDS011;70701;44.452;18.652;2024-03-07T10:59:35;12.10;;;7.97;;
81229;SDS011;70701;44.452;18.652;2024-03-07T11:04:50;12.50;;;8.63;;
81229;SDS011;70701;44.452;18.652;2024-03-07T11:07:18;14.37;;;8.90;;
81229;SDS011;70701;44.452;18.652;2024-03-07T11:09:47;12.43;;;7.83;;
81229;SDS011;70701;44.452;18.652;2024-03-07T11:12:18;15.80;;;9.87;;
81229;SDS011;70701;44.452;18.652;2024-03-07T11:14:47;17.43;;;9.93;;
81229;SDS011;70701;44.452;18.652;2024-03-07T11:17:14;18.63;;;11.30;;
81229;SDS011;70701;44.452;18.652;2024-03-07T11:19:40;15.10;;;8.10;;
81229;SDS011;70701;44.452;18.652;2024-03-07T11:22:07;18.67;;;9.63;;
81229;SDS011;70701;44.452;18.652;2024-03-07T11:24:42;17.50;;;9.80;;
81229;SDS011;70701;44.452;18.652;2024-03-07T11:27:09;15.20;;;9.87;;
81229;SDS011;70701;44.452;18.652;2024-03-07T11:29:42;17.70;;;10.90;;
81229;SDS011;70701;44.452;18.652;2024-03-07T11:32:18;19.97;;;11.30;;
81229;SDS011;70701;44.452;18.652;2024-03-07T11:34:46;16.03;;;9.60;;
81229;SDS011;70701;44.452;18.652;2024-03-07T11:40:07;18.00;;;11.43;;
81229;SDS011;70701;44.452;18.652;2024-03-07T11:42:33;21.03;;;11.57;;
81229;SDS011;70701;44.452;18.652;2024-03-07T11:45:01;20.97;;;11.87;;
81229;SDS011;70701;44.452;18.652;2024-03-07T11:47:43;19.63;;;12.63;;
81229;SDS011;70701;44.452;18.652;2024-03-07T11:50:09;18.13;;;11.00;;
81229;SDS011;70701;44.452;18.652;2024-03-07T11:52:38;16.27;;;11.10;;
81229;SDS011;70701;44.452;18.652;2024-03-07T11:55:07;19.00;;;12.27;;
81229;SDS011;70701;44.452;18.652;2024-03-07T11:57:33;18.33;;;11.83;;
81229;SDS011;70701;44.452;18.652;2024-03-07T11:59:59;27.63;;;15.10;;
81229;SDS011;70701;44.452;18.652;2024-03-07T12:02:37;24.73;;;12.50;;
81229;SDS011;70701;44.452;18.652;2024-03-07T12:05:04;23.00;;;12.83;;
81229;SDS011;70701;44.452;18.652;2024-03-07T12:07:31;21.30;;;13.13;;
81229;SDS011;70701;44.452;18.652;2024-03-07T12:09:57;26.60;;;15.23;;
81229;SDS011;70701;44.452;18.652;2024-03-07T12:12:22;22.37;;;14.57;;
81229;SDS011;70701;44.452;18.652;2024-03-07T12:14:50;25.23;;;15.00;;
81229;SDS011;70701;44.452;18.652;2024-03-07T12:17:20;26.17;;;16.47;;
81229;SDS011;70701;44.452;18.652;2024-03-07T12:19:46;24.00;;;13.90;;
81229;SDS011;70701;44.452;18.652;2024-03-07T12:22:12;22.57;;;14.63;;
81229;SDS011;70701;44.452;18.652;2024-03-07T12:24:39;22.30;;;14.97;;
81229;SDS011;70701;44.452;18.652;2024-03-07T12:27:11;20.93;;;12.77;;
81229;SDS011;70701;44.452;18.652;2024-03-07T12:29:41;20.40;;;14.17;;
81229;SDS011;70701;44.452;18.652;2024-03-07T12:32:09;22.00;;;14.23;;
81229;SDS011;70701;44.452;18.652;2024-03-07T12:34:39;25.50;;;16.80;;
81229;SDS011;70701;44.452;18.652;2024-03-07T12:37:10;28.17;;;16.63;;
81229;SDS011;70701;44.452;18.652;2024-03-07T12:39:36;24.80;;;15.63;;
81229;SDS011;70701;44.452;18.652;2024-03-07T12:42:12;22.77;;;14.87;;
81229;SDS011;70701;44.452;18.652;2024-03-07T12:44:58;23.90;;;16.80;;
81229;SDS011;70701;44.452;18.652;2024-03-07T12:47:25;27.20;;;16.13;;
81229;SDS011;70701;44.452;18.652;2024-03-07T12:49:53;22.57;;;13.23;;
81229;SDS011;70701;44.452;18.652;2024-03-07T12:52:19;22.47;;;14.03;;
81229;SDS011;70701;44.452;18.652;2024-03-07T12:54:45;26.07;;;15.87;;
81229;SDS011;70701;44.452;18.652;2024-03-07T12:57:13;24.60;;;15.57;;
81229;SDS011;70701;44.452;18.652;2024-03-07T12:59:39;24.93;;;15.50;;
81229;SDS011;70701;44.452;18.652;2024-03-07T13:02:07;22.43;;;15.03;;
81229;SDS011;70701;44.452;18.652;2024-03-07T13:04:37;24.07;;;16.17;;
81229;SDS011;70701;44.452;18.652;2024-03-07T13:07:04;26.07;;;15.13;;
81229;SDS011;70701;44.452;18.652;2024-03-07T13:09:30;23.43;;;14.57;;
81229;SDS011;70701;44.452;18.652;2024-03-07T13:11:57;23.93;;;15.33;;
81229;SDS011;70701;44.452;18.652;2024-03-07T13:14:26;23.07;;;15.27;;
81229;SDS011;70701;44.452;18.652;2024-03-07T13:16:58;23.43;;;15.03;;
81229;SDS011;70701;44.452;18.652;2024-03-07T13:19:28;24.10;;;15.90;;
81229;SDS011;70701;44.452;18.652;2024-03-07T13:21:54;21.10;;;14.40;;
81229;SDS011;70701;44.452;18.652;2024-03-07T13:24:20;19.83;;;14.10;;
81229;SDS011;70701;44.452;18.652;2024-03-07T13:26:47;20.63;;;13.47;;
81229;SDS011;70701;44.452;18.652;2024-03-07T13:29:16;25.23;;;15.63;;
81229;SDS011;70701;44.452;18.652;2024-03-07T13:31:43;23.73;;;15.40;;
81229;SDS011;70701;44.452;18.652;2024-03-07T13:34:10;18.93;;;12.93;;
81229;SDS011;70701;44.452;18.652;2024-03-07T13:36:41;21.30;;;13.43;;
81229;SDS011;70701;44.452;18.652;2024-03-07T13:39:08;23.37;;;15.30;;
81229;SDS011;70701;44.452;18.652;2024-03-07T13:41:38;21.70;;;15.20;;
81229;SDS011;70701;44.452;18.652;2024-03-07T13:44:05;23.07;;;14.90;;
81229;SDS011;70701;44.452;18.652;2024-03-07T13:46:32;22.63;;;15.60;;
81229;SDS011;70701;44.452;18.652;2024-03-07T13:48:59;31.23;;;17.73;;
81229;SDS011;70701;44.452;18.652;2024-03-07T13:54:01;23.60;;;15.17;;
81229;SDS011;70701;44.452;18.652;2024-03-07T13:59:54;22.80;;;14.70;;
81229;SDS011;70701;44.452;18.652;2024-03-07T14:06:06;28.38;;;16.50;;
81229;SDS011;70701;44.452;18.652;2024-03-07T14:20:26;36.87;;;22.33;;
81229;SDS011;70701;44.452;18.652;2024-03-07T14:25:51;31.23;;;19.60;;
81229;SDS011;70701;44.452;18.652;2024-03-07T14:31:05;40.47;;;26.38;;
81229;SDS011;70701;44.452;18.652;2024-03-07T14:36:43;44.50;;;26.57;;
81229;SDS011;70701;44.452;18.652;2024-03-07T14:39:11;49.83;;;28.60;;
81229;SDS011;70701;44.452;18.652;2024-03-07T14:44:16;34.37;;;21.20;;
81229;SDS011;70701;44.452;18.652;2024-03-07T14:46:43;37.57;;;23.27;;
81229;SDS011;70701;44.452;18.652;2024-03-07T14:49:10;51.27;;;32.30;;
81229;SDS011;70701;44.452;18.652;2024-03-07T14:51:41;35.93;;;22.77;;
81229;SDS011;70701;44.452;18.652;2024-03-07T14:54:07;35.23;;;20.43;;
81229;SDS011;70701;44.452;18.652;2024-03-07T14:56:33;33.50;;;20.30;;
81229;SDS011;70701;44.452;18.652;2024-03-07T14:59:09;29.73;;;18.30;;
81229;SDS011;70701;44.452;18.652;2024-03-07T15:01:35;36.77;;;22.80;;